Terminal Aerodrome Forecast
Issued by NWS

Home | Current Version | Previous Version | Text Only | Print | Product List | Glossary On
Versions: 1 2 3 4 5 6 7 8 9 10 11 12 13 14 15 16
000
FTUS45 KGJT 221136
TAFASE
TAF
KASE 221136Z 2212/2312 17004KT P6SM SCT140
     FM221700 20011G20KT P6SM SCT060 BKN140
     FM221900 20011G23KT P6SM VCTS SCT070CB BKN080
     FM230000 21010G20KT P6SM VCSH SCT070 BKN090
     FM230200 18005KT P6SM VCSH SCT060 BKN110
     FM230600 16005KT P6SM BKN110=

USA.gov is the U.S. government's official web portal to all federal, state and local government web resources and services.